This is the latest recevied weather packets stored in our database for station/object W5ITZ. If no packets are shown the sender has not sent any weather packets the latest 10 day(s).
| Time | Temp. | Humidity | Pressure | Rain* | Wind** | Luminosity | Snow |
|---|---|---|---|---|---|---|---|
| 1777683762 | 16.11° C | 97% | 1011.6 hPa | 1.27 mm | - | 1 W/m² | - |
| 1777683459 | 16.11° C | 97% | 1011.7 hPa | 1.78 mm | - | 3 W/m² | - |
| 1777683157 | 16.11° C | 97% | 1011.1 hPa | 1.78 mm | - | 5 W/m² | - |
| 1777682854 | 16.11° C | 97% | 1011.5 hPa | 3.05 mm | - | 6 W/m² | - |
| 1777682550 | 16.11° C | 97% | 1012.2 hPa | 3.05 mm | - | 5 W/m² | - |
| 1777682248 | 16.11° C | 97% | 1012.1 hPa | 0 mm | - | 5 W/m² | - |
| 1777681945 | 16.11° C | 97% | 1011.8 hPa | 1.27 mm | - | 10 W/m² | - |
| 1777681640 | 16.67° C | 96% | 1011.7 hPa | 3.05 mm | - | 11 W/m² | - |
| 1777681339 | 16.67° C | 96% | 1011.8 hPa | 3.05 mm | - | 10 W/m² | - |
| 1777681035 | 16.67° C | 96% | 1011.3 hPa | 4.83 mm | - | 15 W/m² | - |
| 1777680734 | 16.67° C | 96% | 1011.1 hPa | 3.56 mm | - | 20 W/m² | - |
| 1777680431 | 16.67° C | 96% | 1011.3 hPa | 1.27 mm | - | 21 W/m² | - |
| 1777680129 | 16.67° C | 96% | 1011.5 hPa | 1.27 mm | - | 14 W/m² | - |
| 1777679824 | 16.67° C | 96% | 1011.5 hPa | 1.78 mm | - | 16 W/m² | - |
| 1777679520 | 16.67° C | 96% | 1011.5 hPa | 3.05 mm | - | 22 W/m² | - |
| 1777679216 | 16.67° C | 96% | 1011.3 hPa | 6.1 mm | - | 25 W/m² | - |
| 1777678914 | 16.67° C | 96% | 1010.8 hPa | 4.83 mm | - | 44 W/m² | - |
| 1777678611 | 16.67° C | 96% | 1010.7 hPa | 3.05 mm | - | 40 W/m² | - |
| 1777678308 | 16.67° C | 96% | 1010.5 hPa | 3.05 mm | - | 40 W/m² | - |
| 1777678004 | 16.67° C | 96% | 1010.8 hPa | 4.83 mm | - | 26 W/m² | - |
| 1777677702 | 16.67° C | 96% | 1010.5 hPa | 7.87 mm | - | 34 W/m² | - |
| 1777677399 | 17.22° C | 96% | 1010.7 hPa | 13.72 mm | - | 29 W/m² | - |
| 1777677097 | 17.22° C | 96% | 1010.8 hPa | 29.97 mm | - | 36 W/m² | - |
| 1777676796 | 17.22° C | 96% | 1010.4 hPa | 35.31 mm | - | 50 W/m² | - |
| 1777676494 | 17.78° C | 96% | 1010.6 hPa | 13.72 mm | - | 42 W/m² | - |
* Rain latest hour (hover to see other rain measurements)
** Current wind speed in m/s (hover to see current wind gust speed)